Avon, Iowa
Current Conditions -  °F | °C
As of 5:54 PM on Monday 20 Oct 2014 (Local Time) from KDSM Reporting Station
Few Clouds Few Clouds  
Wind Chill: 68°   Ceiling: Unl
Heat Index: 68°   Visibility: 10mi
Dew Point: 38°   Wind: 8mph
Humidity: 33%   Direction: 330°NNW
Pressure: 30.01"   Gusts: NA
Location:  41.4707°N, 93.4797°W
Report Text: KDSM 202254Z 33007KT 10SM FEW300 20/03 A3001 RMK AO2 SLP162 T02000033
Loading
Personal Weather Stations






























Interactive Weather Map
Tropical Storm Tracking
New forecast layout! Learn more

10-Day Weather Forecast

Advertisements
Track Severe Weather on mobile